createdAt,value
2023-04-03T00:00:42.625Z,958.3972
2023-04-03T00:01:44.862Z,958.4033
2023-04-03T00:02:47.120Z,958.3956
2023-04-03T00:03:49.415Z,958.3889
2023-04-03T00:04:51.608Z,958.3978
2023-04-03T00:05:53.824Z,958.3950
2023-04-03T00:06:56.026Z,958.4006
2023-04-03T00:07:58.250Z,958.4039
2023-04-03T00:09:00.469Z,958.4384
2023-04-03T00:10:02.677Z,958.4328
2023-04-03T00:11:04.892Z,958.4294
2023-04-03T00:12:07.061Z,958.4261
2023-04-03T00:13:09.264Z,958.4128
2023-04-03T00:14:11.482Z,958.4083
2023-04-03T00:15:13.800Z,958.4255
2023-04-03T00:16:16.031Z,958.4150
2023-04-03T00:17:18.221Z,958.4205
2023-04-03T00:18:20.414Z,958.4161
2023-04-03T00:19:22.652Z,958.4283
2023-04-03T00:20:24.943Z,958.4228
2023-04-03T00:21:27.132Z,958.4178
2023-04-03T00:22:29.335Z,958.4283
2023-04-03T00:23:31.540Z,958.4361
2023-04-03T00:24:33.761Z,958.4422
2023-04-03T00:25:35.975Z,958.4411
2023-04-03T00:26:38.165Z,958.4595
2023-04-03T00:27:40.385Z,958.4683
2023-04-03T00:28:42.602Z,958.4739
2023-04-03T00:29:44.802Z,958.5100
2023-04-03T00:30:47.024Z,958.4995
2023-04-03T00:31:49.199Z,958.5117
2023-04-03T00:32:51.445Z,958.5145
2023-04-03T00:33:53.581Z,958.5206
2023-04-03T00:34:55.791Z,958.4944
2023-04-03T00:35:58.062Z,958.5156
2023-04-03T00:37:00.382Z,958.5050
2023-04-03T00:38:02.650Z,958.5050
2023-04-03T00:39:04.838Z,958.5045
2023-04-03T00:40:07.046Z,958.5011
2023-04-03T00:41:09.272Z,958.4928
2023-04-03T00:42:11.479Z,958.4916
2023-04-03T00:43:13.714Z,958.5028
2023-04-03T00:44:15.902Z,958.4833
2023-04-03T00:45:18.161Z,958.4955
2023-04-03T00:46:20.367Z,958.4911
2023-04-03T00:47:22.649Z,958.4828
2023-04-03T00:48:24.875Z,958.4811
2023-04-03T00:49:27.109Z,958.4667
2023-04-03T00:50:29.337Z,958.4728
2023-04-03T00:51:31.553Z,958.4728
2023-04-03T00:52:32.160Z,958.4653
2023-04-03T00:53:34.378Z,958.4811
2023-04-03T00:54:36.584Z,958.4872
2023-04-03T00:55:38.964Z,958.4872
2023-04-03T00:56:41.208Z,958.4878
2023-04-03T00:57:43.397Z,958.4916
2023-04-03T00:58:45.609Z,958.4850
2023-04-03T00:59:47.846Z,958.4783
2023-04-03T01:00:50.232Z,958.4733
2023-04-03T01:01:52.487Z,958.4817
2023-04-03T01:02:54.754Z,958.4755
2023-04-03T01:03:57.012Z,958.4922
2023-04-03T01:04:59.204Z,958.5078
2023-04-03T01:06:01.471Z,958.5106
2023-04-03T01:07:03.700Z,958.5100
2023-04-03T01:08:05.971Z,958.5005
2023-04-03T01:09:08.216Z,958.5145
2023-04-03T01:10:10.431Z,958.4995
2023-04-03T01:11:12.690Z,958.5034
2023-04-03T01:12:14.905Z,958.5089
2023-04-03T01:13:17.144Z,958.5222
2023-04-03T01:14:19.390Z,958.5200
2023-04-03T01:15:21.607Z,958.5256
2023-04-03T01:16:23.880Z,958.5156
2023-04-03T01:17:26.150Z,958.5122
2023-04-03T01:18:28.362Z,958.5139
2023-04-03T01:19:30.575Z,958.5005
2023-04-03T01:20:32.814Z,958.5061
2023-04-03T01:21:35.050Z,958.5122
2023-04-03T01:22:37.270Z,958.5217
2023-04-03T01:23:39.482Z,958.5250
2023-04-03T01:24:41.640Z,958.5444
2023-04-03T01:25:43.880Z,958.5578
2023-04-03T01:26:46.143Z,958.5706
2023-04-03T01:27:48.340Z,958.5745
2023-04-03T01:28:50.546Z,958.6055
2023-04-03T01:29:52.750Z,958.5867
2023-04-03T01:30:54.940Z,958.6072
2023-04-03T01:31:57.225Z,958.6094
2023-04-03T01:32:59.462Z,958.6300
2023-04-03T01:34:01.671Z,958.6139
2023-04-03T01:35:03.863Z,958.6133
2023-04-03T01:36:06.222Z,958.6128
2023-04-03T01:37:08.454Z,958.6083
2023-04-03T01:38:10.884Z,958.6139
2023-04-03T01:39:13.086Z,958.6116
2023-04-03T01:40:15.277Z,958.6067
2023-04-03T01:41:17.483Z,958.6061
2023-04-03T01:42:19.922Z,958.6028
2023-04-03T01:43:22.099Z,958.5944
2023-04-03T01:44:24.295Z,958.6011
2023-04-03T01:45:26.523Z,958.6061
2023-04-03T01:46:28.698Z,958.6178
2023-04-03T01:47:31.258Z,958.6289
2023-04-03T01:48:33.414Z,958.6361
2023-04-03T01:49:35.616Z,958.6494
2023-04-03T01:50:38.185Z,958.6600
2023-04-03T01:51:40.627Z,958.6805
2023-04-03T01:52:42.863Z,958.6800
2023-04-03T01:53:45.078Z,958.6794
2023-04-03T01:54:47.299Z,958.6711
2023-04-03T01:55:49.551Z,958.6733
2023-04-03T01:56:51.784Z,958.6572
2023-04-03T01:57:54.011Z,958.6528
2023-04-03T01:58:56.230Z,958.6489
2023-04-03T01:59:58.486Z,958.6606
2023-04-03T02:01:00.695Z,958.6422
2023-04-03T02:02:02.892Z,958.6389
2023-04-03T02:03:05.214Z,958.6266
2023-04-03T02:04:07.452Z,958.6350
2023-04-03T02:08:06.416Z,958.6295
2023-04-03T02:08:06.416Z,958.6300
2023-04-03T02:08:41.370Z,958.6160
2023-04-03T02:09:43.680Z,958.6245
2023-04-03T06:22:44.362Z,958.6000
2023-04-03T06:22:44.362Z,958.6133
2023-04-03T06:23:46.698Z,959.5795
2023-04-03T06:24:49.357Z,959.5850
2023-04-03T06:25:51.779Z,959.5778
2023-04-03T06:29:36.482Z,959.5840
2023-04-03T06:29:36.482Z,959.6000
2023-04-03T06:30:57.228Z,959.5700
2023-04-03T06:38:53.567Z,959.5850
2023-04-03T06:38:53.567Z,959.5600
2023-04-03T06:39:55.940Z,959.5967
2023-04-03T06:41:00.451Z,959.5972
2023-04-03T06:42:00.555Z,959.6013
2023-04-03T06:43:02.870Z,959.5994
2023-04-03T06:44:05.157Z,959.6005
2023-04-03T06:45:07.380Z,959.6155
2023-04-03T06:46:08.204Z,959.6060
2023-04-03T06:47:11.082Z,959.6011
2023-04-03T06:48:13.386Z,959.6139
2023-04-03T06:49:15.614Z,959.6178
2023-04-03T06:50:20.859Z,959.6200
2023-04-03T06:55:02.800Z,959.6115
2023-04-03T06:55:02.800Z,959.6300
2023-04-03T06:55:58.536Z,959.6800
2023-04-03T06:57:01.653Z,959.6872
2023-04-03T06:58:03.859Z,959.6978
2023-04-03T06:59:06.267Z,959.7095
2023-04-03T07:00:08.925Z,959.7172
2023-04-03T07:01:11.195Z,959.7394
2023-04-03T07:02:13.592Z,959.7489
2023-04-03T07:09:45.205Z,959.7331
2023-04-03T07:09:45.205Z,959.7200
2023-04-03T07:10:44.624Z,959.7294
2023-04-03T07:11:47.708Z,959.7478
2023-04-03T07:12:50.000Z,959.7333
2023-04-03T07:21:12.085Z,959.7914
2023-04-03T07:22:14.386Z,959.8072
2023-04-03T07:23:17.386Z,959.8055
2023-04-03T07:24:19.643Z,959.8028
2023-04-03T07:25:19.966Z,959.8231
2023-04-03T07:26:22.255Z,959.8206
2023-04-03T07:27:24.532Z,959.8150
2023-04-03T07:33:46.173Z,959.8750
2023-04-03T07:33:46.173Z,959.8700
2023-04-03T07:34:46.914Z,959.8538
2023-04-03T07:44:55.626Z,959.8671
2023-04-03T07:44:55.626Z,959.8600
2023-04-03T07:45:57.851Z,959.8550
2023-04-03T07:47:00.126Z,959.8566
2023-04-03T07:49:45.716Z,959.8611
2023-04-03T07:49:45.716Z,959.8600
2023-04-03T07:50:49.420Z,959.8761
2023-04-03T07:51:48.465Z,959.8675
2023-04-03T07:58:59.749Z,959.9000
2023-04-03T07:58:59.749Z,959.8900
2023-04-03T08:00:02.011Z,959.8655
2023-04-03T08:01:04.632Z,959.8644
2023-04-03T08:02:06.908Z,959.8778
2023-04-03T08:03:18.221Z,959.8670
2023-04-03T08:04:10.613Z,959.8666
2023-04-03T08:05:12.936Z,959.8578
2023-04-03T08:06:16.370Z,959.8622
2023-04-03T08:07:16.874Z,959.8787
2023-04-03T08:08:20.858Z,959.8845
2023-04-03T08:09:20.306Z,959.8988
2023-04-03T08:10:22.586Z,959.8989
2023-04-03T08:11:29.897Z,959.9000
2023-04-03T08:12:28.232Z,959.8918
2023-04-03T08:13:38.858Z,959.8900
2023-04-03T08:14:41.885Z,959.8728
2023-04-03T08:15:44.758Z,959.8839
2023-04-03T08:16:59.536Z,959.8806
2023-04-03T08:26:04.735Z,959.8850
2023-04-03T08:26:04.735Z,959.8600
2023-04-03T08:27:03.860Z,959.8135
2023-04-03T08:31:08.723Z,959.8239
2023-04-03T08:31:08.723Z,959.8000
2023-04-03T08:32:11.165Z,959.7944
2023-04-03T08:33:13.488Z,959.7955
2023-04-03T08:34:16.580Z,959.7906
2023-04-03T08:35:17.133Z,959.7906
2023-04-03T08:36:27.920Z,959.7947
2023-04-03T08:37:27.956Z,959.7988
2023-04-03T08:38:27.933Z,959.8171
2023-04-03T08:39:30.198Z,959.8150
2023-04-03T08:40:41.066Z,959.8270
2023-04-03T08:45:04.520Z,959.8100
2023-04-03T08:45:04.520Z,959.8228
2023-04-03T08:46:06.800Z,959.8123
2023-04-03T08:47:09.240Z,959.8195
2023-04-03T08:48:11.501Z,959.8289
2023-04-03T08:49:14.061Z,959.8594
2023-04-03T08:50:16.414Z,959.8628
2023-04-03T08:51:18.616Z,959.8456
2023-04-03T08:52:20.861Z,959.8433
2023-04-03T08:53:23.162Z,959.8472
2023-04-03T08:54:25.378Z,959.8622
2023-04-03T08:55:27.760Z,959.8650
2023-04-03T08:56:30.120Z,959.8795
2023-04-03T08:57:32.605Z,959.8628
2023-04-03T08:58:34.842Z,959.8745
2023-04-03T09:01:03.170Z,959.8840
2023-04-03T09:01:03.170Z,959.8700
2023-04-03T09:02:06.964Z,959.9050
2023-04-03T09:03:16.818Z,959.9222
2023-04-03T09:08:07.985Z,959.8700
2023-04-03T09:08:07.985Z,959.9100
2023-04-03T09:09:19.445Z,959.9150
2023-04-03T09:11:54.795Z,959.9500
2023-04-03T09:15:11.845Z,959.9100
2023-04-03T09:15:11.845Z,959.9500
2023-04-03T09:16:15.408Z,959.9406
2023-04-03T09:17:16.027Z,959.9500
2023-04-03T09:18:14.998Z,959.9441
2023-04-03T09:19:17.545Z,959.9484
2023-04-03T09:21:46.045Z,959.9400
2023-04-03T09:21:46.045Z,959.9586
2023-04-03T09:22:52.237Z,959.9489
2023-04-03T09:26:51.912Z,959.9380
2023-04-03T09:26:51.912Z,959.9200
2023-04-03T09:27:55.065Z,959.9384
2023-04-03T09:28:56.432Z,959.9163
2023-04-03T09:30:00.557Z,959.9344
2023-04-03T09:31:00.642Z,959.9341
2023-04-03T09:32:01.097Z,959.9300
2023-04-03T09:33:03.415Z,959.9350
2023-04-03T09:34:05.884Z,959.9355
2023-04-03T09:35:19.173Z,959.9506
2023-04-03T09:44:24.375Z,959.9313
2023-04-03T09:44:24.375Z,959.9400
2023-04-03T10:02:08.467Z,959.9900
2023-04-03T10:02:08.467Z,959.9600
2023-04-03T10:03:11.447Z,960.0578
2023-04-03T10:04:16.099Z,960.0550
2023-04-03T10:07:27.290Z,960.0750
2023-04-03T10:07:27.290Z,960.0700
2023-04-03T10:08:16.919Z,960.0607
2023-04-03T10:09:19.159Z,960.0539
2023-04-03T10:10:21.560Z,960.0367
2023-04-03T10:11:23.790Z,960.0267
2023-04-03T10:26:43.034Z,960.0000
2023-04-03T10:26:43.034Z,960.0000
2023-04-03T10:29:51.476Z,959.9593
2023-04-03T10:29:51.476Z,959.9400
2023-04-03T10:30:46.970Z,959.9319
2023-04-03T10:31:49.443Z,959.9305
2023-04-03T10:32:53.257Z,959.9500
2023-04-03T10:33:52.044Z,959.9447
2023-04-03T10:35:04.597Z,959.9476
2023-04-03T10:39:56.468Z,959.9500
2023-04-03T10:39:56.468Z,959.9500
2023-04-03T10:46:13.305Z,959.9000
2023-04-03T10:46:13.305Z,959.8700
2023-04-03T10:46:51.583Z,959.8555
2023-04-03T10:47:53.932Z,959.8772
2023-04-03T10:48:56.836Z,959.8594
2023-04-03T10:49:59.898Z,959.8494
2023-04-03T10:50:59.101Z,959.8665
2023-04-03T10:52:01.464Z,959.8550
2023-04-03T11:02:21.464Z,959.8900
2023-04-03T11:02:21.464Z,959.8600
2023-04-03T11:05:03.753Z,959.8000
2023-04-03T11:05:03.753Z,959.7800
2023-04-03T11:15:21.954Z,959.7700
2023-04-03T11:15:21.954Z,959.8000
2023-04-03T11:16:28.336Z,959.7578
2023-04-03T11:17:27.361Z,959.7329
2023-04-03T11:18:29.567Z,959.7067
2023-04-03T11:19:31.887Z,959.7050
2023-04-03T11:20:34.562Z,959.7022
2023-04-03T11:21:36.876Z,959.6961
2023-04-03T11:22:39.291Z,959.7011
2023-04-03T11:24:53.574Z,959.7112
2023-04-03T11:26:15.740Z,959.7127
2023-04-03T11:27:07.797Z,959.7060
2023-04-03T11:29:15.708Z,959.7000
2023-04-03T11:30:13.963Z,959.6779
2023-04-03T11:31:17.474Z,959.6672
2023-04-03T11:32:16.512Z,959.6806
2023-04-03T11:34:05.523Z,959.6733
2023-04-03T11:34:47.173Z,959.6733
2023-04-03T11:35:50.337Z,959.6689
2023-04-03T11:36:52.693Z,959.6617
2023-04-03T11:37:53.204Z,959.6400
2023-04-03T11:38:55.854Z,959.6261
2023-04-03T11:39:58.079Z,959.6189
2023-04-03T11:41:00.413Z,959.6166
2023-04-03T11:42:40.532Z,959.6014
2023-04-03T11:43:34.542Z,959.6000
2023-04-03T11:44:36.798Z,959.5906
2023-04-03T11:45:39.202Z,959.6011
2023-04-03T11:48:13.011Z,959.5900
2023-04-03T11:48:13.011Z,959.6200
2023-04-03T11:49:06.622Z,959.6356
2023-04-03T11:50:09.791Z,959.6511
2023-04-03T11:51:11.960Z,959.6228
2023-04-03T11:52:14.186Z,959.6216
2023-04-03T11:56:31.121Z,959.6266
2023-04-03T11:56:31.121Z,959.6000
2023-04-03T11:57:55.246Z,959.5829
2023-04-03T11:58:47.659Z,959.5960
2023-04-03T11:59:50.052Z,959.5906
2023-04-03T12:00:52.509Z,959.5711
2023-04-03T12:01:54.973Z,959.5550
2023-04-03T12:02:57.328Z,959.5466
2023-04-03T12:04:00.843Z,959.5300
2023-04-03T12:05:03.130Z,959.5206
2023-04-03T12:06:05.362Z,959.5350
2023-04-03T12:07:07.591Z,959.5400
2023-04-03T12:08:09.800Z,959.4916
2023-04-03T12:09:12.036Z,959.4822
2023-04-03T12:10:21.413Z,959.4944
2023-04-03T12:11:15.543Z,959.4763
2023-04-03T12:12:17.823Z,959.4694
2023-04-03T12:13:22.988Z,959.4728
2023-04-03T12:14:26.941Z,959.4738
2023-04-03T12:15:29.716Z,959.4628
2023-04-03T12:16:32.179Z,959.4406
2023-04-03T12:17:34.446Z,959.4344
2023-04-03T12:18:37.630Z,959.4261
2023-04-03T12:19:42.494Z,959.4276
2023-04-03T12:20:37.963Z,959.4306
2023-04-03T12:21:40.209Z,959.4161
2023-04-03T12:22:42.675Z,959.3895
2023-04-03T12:23:44.894Z,959.3867
2023-04-03T12:24:47.153Z,959.3716
2023-04-03T12:25:49.446Z,959.3622
2023-04-03T12:26:52.195Z,959.3700
2023-04-03T12:27:54.488Z,959.3655
2023-04-03T12:28:56.788Z,959.3583
2023-04-03T12:29:59.076Z,959.3839
2023-04-03T12:31:01.328Z,959.3922
2023-04-03T12:32:03.571Z,959.3956
2023-04-03T12:33:12.430Z,959.3922
2023-04-03T12:34:07.164Z,959.3969
2023-04-03T12:35:09.439Z,959.3967
2023-04-03T12:36:11.693Z,959.3850
2023-04-03T12:37:14.052Z,959.3822
2023-04-03T12:38:16.337Z,959.3511
2023-04-03T12:39:18.631Z,959.3433
2023-04-03T12:40:20.920Z,959.3383
2023-04-03T12:41:23.684Z,959.3061
2023-04-03T12:42:25.888Z,959.3111
2023-04-03T12:43:28.176Z,959.3200
2023-04-03T12:44:30.514Z,959.3116
2023-04-03T12:45:33.249Z,959.3161
2023-04-03T12:46:35.596Z,959.3134
2023-04-03T12:47:37.855Z,959.3145
2023-04-03T12:48:40.116Z,959.3116
2023-04-03T12:49:42.369Z,959.3005
2023-04-03T12:50:45.533Z,959.3011
2023-04-03T12:51:47.704Z,959.2983
2023-04-03T12:52:50.012Z,959.3011
2023-04-03T12:53:52.268Z,959.3134
2023-04-03T12:54:54.560Z,959.3139
2023-04-03T12:55:56.837Z,959.2905
2023-04-03T12:56:59.434Z,959.2811
2023-04-03T12:58:01.659Z,959.2978
2023-04-03T12:59:04.133Z,959.2844
2023-04-03T13:00:06.360Z,959.2783
2023-04-03T13:01:09.369Z,959.2600
2023-04-03T13:02:10.290Z,959.2725
2023-04-03T13:03:12.653Z,959.2667
2023-04-03T13:04:14.988Z,959.2656
2023-04-03T13:05:17.311Z,959.2439
2023-04-03T13:06:19.517Z,959.2106
2023-04-03T13:07:22.578Z,959.1928
2023-04-03T13:08:24.908Z,959.1672
2023-04-03T13:09:28.107Z,959.1972
2023-04-03T13:10:30.392Z,959.1995
2023-04-03T13:11:32.643Z,959.2128
2023-04-03T13:12:39.222Z,959.2211
2023-04-03T13:13:35.381Z,959.2244
2023-04-03T13:14:37.765Z,959.2161
2023-04-03T13:15:40.422Z,959.2222
2023-04-03T13:16:42.637Z,959.2300
2023-04-03T13:17:45.169Z,959.1866
2023-04-03T13:18:47.682Z,959.1666
2023-04-03T13:19:49.997Z,959.1450
2023-04-03T13:20:52.323Z,959.1400
2023-04-03T13:21:54.699Z,959.1667
2023-04-03T13:22:56.979Z,959.1744
2023-04-03T13:24:13.894Z,959.1489
2023-04-03T13:25:02.757Z,959.1212
2023-04-03T13:26:02.731Z,959.1406
2023-04-03T13:27:05.019Z,959.1272
2023-04-03T13:28:13.927Z,959.1083
2023-04-03T13:29:14.895Z,959.1156
2023-04-03T13:30:11.181Z,959.1150
2023-04-03T13:31:14.235Z,959.1011
2023-04-03T13:32:16.505Z,959.0778
2023-04-03T13:33:18.822Z,959.1044
2023-04-03T13:34:21.108Z,959.1067
2023-04-03T13:35:23.657Z,959.0900
2023-04-03T13:36:25.866Z,959.0711
2023-04-03T13:37:28.217Z,959.0767
2023-04-03T13:38:30.473Z,959.0728
2023-04-03T13:39:32.823Z,959.0594
2023-04-03T13:40:46.921Z,959.0494
2023-04-03T13:41:36.857Z,959.0450
2023-04-03T13:42:39.158Z,959.0439
2023-04-03T13:43:42.055Z,959.0450
2023-04-03T13:44:42.020Z,959.0412
2023-04-03T13:45:44.307Z,959.0394
2023-04-03T13:46:46.641Z,959.0206
2023-04-03T13:47:49.230Z,959.0272
2023-04-03T13:48:51.619Z,959.0156
2023-04-03T13:49:51.692Z,959.0175
2023-04-03T13:50:54.020Z,958.9883
2023-04-03T13:52:06.496Z,959.0028
2023-04-03T13:52:58.644Z,958.9950
2023-04-03T13:54:00.901Z,959.0005
2023-04-03T13:55:07.730Z,959.0217
2023-04-03T13:56:05.021Z,959.0156
2023-04-03T13:57:07.322Z,958.9713
2023-04-03T13:58:10.015Z,958.9661
2023-04-03T13:59:12.634Z,958.9639
2023-04-03T14:00:15.002Z,958.9717
2023-04-03T14:01:17.345Z,958.9739
2023-04-03T14:02:19.702Z,958.9739
2023-04-03T14:03:22.077Z,958.9522
2023-04-03T14:04:24.476Z,958.9611
2023-04-03T14:05:26.752Z,958.9739
2023-04-03T14:06:29.880Z,958.9589
2023-04-03T14:07:32.293Z,958.9528
2023-04-03T14:08:42.430Z,958.9439
2023-04-03T14:09:36.059Z,958.9062
2023-04-03T14:10:38.365Z,958.9028
2023-04-03T14:11:40.674Z,958.8895
2023-04-03T14:12:42.990Z,958.8806
2023-04-03T14:13:45.302Z,958.8900
2023-04-03T14:14:47.554Z,958.8867
2023-04-03T14:15:49.902Z,958.8716
2023-04-03T14:16:52.302Z,958.8828
2023-04-03T14:17:54.716Z,958.8611
2023-04-03T14:18:57.124Z,958.8411
2023-04-03T14:19:59.414Z,958.8389
2023-04-03T14:21:02.144Z,958.8256
2023-04-03T14:22:04.425Z,958.8105
2023-04-03T14:23:06.701Z,958.8083
2023-04-03T14:24:09.614Z,958.8061
2023-04-03T14:25:12.206Z,958.7894
2023-04-03T14:26:12.088Z,958.7794
2023-04-03T14:27:14.982Z,958.7683
2023-04-03T14:28:20.111Z,958.7617
2023-04-03T14:29:19.016Z,958.7812
2023-04-03T14:30:21.284Z,958.7495
2023-04-03T14:31:23.615Z,958.7478
2023-04-03T14:32:26.053Z,958.7228
2023-04-03T14:33:29.642Z,958.7172
2023-04-03T14:34:30.835Z,958.7014
2023-04-03T14:35:33.485Z,958.7161
2023-04-03T14:36:35.871Z,958.6967
2023-04-03T14:37:38.193Z,958.7022
2023-04-03T14:38:40.480Z,958.6828
2023-04-03T14:39:44.123Z,958.6995
2023-04-03T14:40:46.609Z,958.6941
2023-04-03T14:41:44.446Z,958.6587
2023-04-03T14:42:48.005Z,958.6600
2023-04-03T14:43:49.274Z,958.6494
2023-04-03T14:44:51.640Z,958.6594
2023-04-03T14:45:55.654Z,958.6261
2023-04-03T14:46:57.804Z,958.6345
2023-04-03T14:48:59.147Z,958.6308
2023-04-03T14:50:00.223Z,958.6350
2023-04-03T14:51:05.953Z,958.6089
2023-04-03T14:52:05.476Z,958.6400
2023-04-03T14:53:16.996Z,958.6445
2023-04-03T14:55:22.116Z,958.6600
2023-04-03T14:56:10.897Z,958.6364
2023-04-03T14:57:13.182Z,958.6328
2023-04-03T14:58:15.965Z,958.6216
2023-04-03T14:59:18.235Z,958.6161
2023-04-03T15:00:19.564Z,958.6375
2023-04-03T15:01:22.059Z,958.6189
2023-04-03T15:02:26.008Z,958.6155
2023-04-03T15:03:41.374Z,958.6188
2023-04-03T15:13:16.017Z,958.6681
2023-04-03T15:14:29.662Z,958.6833
2023-04-03T15:15:19.688Z,958.6800
2023-04-03T15:16:22.060Z,958.6805
2023-04-03T15:17:25.053Z,958.6945
2023-04-03T15:18:30.352Z,958.6945
2023-04-03T15:19:29.848Z,958.7000
2023-04-03T15:20:32.093Z,958.7100
2023-04-03T15:21:35.064Z,958.7317
2023-04-03T15:22:37.325Z,958.7178
2023-04-03T15:23:39.568Z,958.7222
2023-04-03T15:24:41.926Z,958.7283
2023-04-03T15:25:44.225Z,958.7289
2023-04-03T15:26:47.133Z,958.7300
2023-04-03T15:27:49.396Z,958.7495
2023-04-03T15:28:51.764Z,958.7400
2023-04-03T15:29:54.156Z,958.7595
2023-04-03T15:30:56.618Z,958.7583
2023-04-03T15:31:58.992Z,958.7472
2023-04-03T15:33:01.339Z,958.7300
2023-04-03T15:34:03.613Z,958.7383
2023-04-03T15:35:05.970Z,958.7628
2023-04-03T15:36:17.611Z,958.7572
2023-04-03T15:37:09.666Z,958.7650
2023-04-03T15:38:12.116Z,958.7806
2023-04-03T15:39:14.392Z,958.7983
2023-04-03T15:40:16.703Z,958.8156
2023-04-03T15:41:19.009Z,958.7911
2023-04-03T15:42:21.329Z,958.8123
2023-04-03T15:43:23.649Z,958.8039
2023-04-03T15:44:25.922Z,958.8000
2023-04-03T15:45:28.291Z,958.7944
2023-04-03T15:46:30.649Z,958.8005
2023-04-03T15:47:33.325Z,958.7867
2023-04-03T15:48:35.853Z,958.7717
2023-04-03T15:49:38.177Z,958.7556
2023-04-03T15:50:40.748Z,958.7756
2023-04-03T15:51:43.108Z,958.7872
2023-04-03T15:52:45.473Z,958.7833
2023-04-03T15:53:47.833Z,958.7783
2023-04-03T15:54:50.149Z,958.7556
2023-04-03T15:55:52.406Z,958.7455
2023-04-03T15:56:54.753Z,958.7484
2023-04-03T15:57:57.046Z,958.7156
2023-04-03T15:58:59.366Z,958.7289
2023-04-03T16:00:01.830Z,958.7389
2023-04-03T16:01:05.433Z,958.7317
2023-04-03T16:02:04.306Z,958.7476
2023-04-03T16:03:06.724Z,958.7389
2023-04-03T16:04:09.082Z,958.7022
2023-04-03T16:05:11.385Z,958.7294
2023-04-03T16:06:13.708Z,958.7400
2023-04-03T16:07:16.025Z,958.7283
2023-04-03T16:08:22.026Z,958.7316
2023-04-03T16:09:20.943Z,958.7600
2023-04-03T16:10:23.249Z,958.7634
2023-04-03T16:11:25.585Z,958.7639
2023-04-03T16:12:29.040Z,958.7750
2023-04-03T16:13:27.904Z,958.7618
2023-04-03T16:14:30.519Z,958.7756
2023-04-03T16:15:39.347Z,958.7917
2023-04-03T16:16:41.559Z,958.7933
2023-04-03T16:17:43.885Z,958.8011
2023-04-03T16:18:46.165Z,958.8156
2023-04-03T16:19:48.441Z,958.8284
2023-04-03T16:20:50.755Z,958.8256
2023-04-03T16:21:52.998Z,958.8211
2023-04-03T16:22:55.345Z,958.8111
2023-04-03T16:23:57.566Z,958.8222
2023-04-03T16:24:59.930Z,958.8139
2023-04-03T16:26:02.600Z,958.8245
2023-04-03T16:27:04.856Z,958.8317
2023-04-03T16:28:07.103Z,958.8522
2023-04-03T16:29:09.821Z,958.8483
2023-04-03T16:30:12.358Z,958.8589
2023-04-03T16:31:14.659Z,958.8655
2023-04-03T16:32:17.112Z,958.8716
2023-04-03T16:33:19.430Z,958.8705
2023-04-03T16:34:21.731Z,958.8734
2023-04-03T16:35:24.244Z,958.8745
2023-04-03T16:36:26.532Z,958.8661
2023-04-03T16:37:29.208Z,958.8567
2023-04-03T16:38:29.311Z,958.8506
2023-04-03T16:39:31.677Z,958.8500
2023-04-03T16:40:34.419Z,958.8511
2023-04-03T16:41:36.715Z,958.8666
2023-04-03T16:42:38.968Z,958.8605
2023-04-03T16:44:43.365Z,958.8461
2023-04-03T16:45:45.708Z,958.8544
2023-04-03T16:46:48.541Z,958.8483
2023-04-03T16:47:51.172Z,958.8428
2023-04-03T16:48:53.488Z,958.8150
2023-04-03T16:49:55.833Z,958.8123
2023-04-03T16:50:58.132Z,958.8167
2023-04-03T16:52:00.520Z,958.8116
2023-04-03T16:53:04.378Z,958.8128
2023-04-03T16:54:04.535Z,958.8081
2023-04-03T16:55:05.206Z,958.8171
2023-04-03T16:56:07.617Z,958.8116
2023-04-03T16:57:10.081Z,958.8161
2023-04-03T16:58:10.871Z,958.8375
2023-04-03T16:59:13.182Z,958.8172
2023-04-03T17:00:15.769Z,958.8177
2023-04-03T17:01:18.033Z,958.8450
2023-04-03T17:02:19.986Z,958.8339
2023-04-03T17:03:23.583Z,958.8389
2023-04-03T17:04:25.003Z,958.8581
2023-04-03T17:05:27.451Z,958.8539
2023-04-03T17:06:29.756Z,958.8528
2023-04-03T17:07:31.993Z,958.8517
2023-04-03T17:08:34.706Z,958.8489
2023-04-03T17:09:37.154Z,958.8467
2023-04-03T17:10:39.420Z,958.8478
2023-04-03T17:11:42.326Z,958.8439
2023-04-03T17:12:41.893Z,958.8735
2023-04-03T17:13:44.160Z,958.8678
2023-04-03T17:14:46.436Z,958.8572
2023-04-03T17:15:48.937Z,958.8533
2023-04-03T17:16:51.242Z,958.8594
2023-04-03T17:17:53.555Z,958.8711
2023-04-03T17:18:55.868Z,958.8550
2023-04-03T17:19:58.242Z,958.8622
2023-04-03T17:21:00.563Z,958.8400
2023-04-03T17:22:02.990Z,958.8400
2023-04-03T17:23:05.309Z,958.8395
2023-04-03T17:24:07.575Z,958.8456
2023-04-03T17:25:10.004Z,958.8472
2023-04-03T17:26:12.280Z,958.8650
2023-04-03T17:27:14.570Z,958.8467
2023-04-03T17:28:16.933Z,958.8383
2023-04-03T17:29:19.218Z,958.8478
2023-04-03T17:30:21.653Z,958.8505
2023-04-03T17:31:24.134Z,958.8522
2023-04-03T17:32:24.541Z,958.8325
2023-04-03T17:33:26.938Z,958.8539
2023-04-03T17:34:29.227Z,958.8611
2023-04-03T17:35:32.095Z,958.8533
2023-04-03T17:36:34.850Z,958.8654
2023-04-03T17:37:37.500Z,958.8778
2023-04-03T17:38:39.756Z,958.8633
2023-04-03T17:39:42.046Z,958.8439
2023-04-03T17:40:45.210Z,958.8450
2023-04-03T17:41:47.500Z,958.8561
2023-04-03T17:42:49.916Z,958.8444
2023-04-03T17:43:52.183Z,958.8372
2023-04-03T17:44:55.614Z,958.8350
2023-04-03T17:45:57.860Z,958.8139
2023-04-03T17:47:00.136Z,958.8172
2023-04-03T17:48:02.806Z,958.8145
2023-04-03T17:49:05.058Z,958.8094
2023-04-03T17:50:07.388Z,958.8116
2023-04-03T17:51:10.005Z,958.8116
2023-04-03T17:52:12.319Z,958.8261
2023-04-03T17:53:14.587Z,958.8322
2023-04-03T17:54:16.899Z,958.8333
2023-04-03T17:55:19.235Z,958.8422
2023-04-03T17:56:22.196Z,958.8372
2023-04-03T17:57:24.476Z,958.8317
2023-04-03T17:58:26.778Z,958.8289
2023-04-03T17:59:29.101Z,958.8211
2023-04-03T18:00:31.691Z,958.8211
2023-04-03T18:01:34.006Z,958.8300
2023-04-03T18:02:36.358Z,958.8234
2023-04-03T18:03:38.728Z,958.8178
2023-04-03T18:04:41.021Z,958.8383
2023-04-03T18:05:43.761Z,958.8572
2023-04-03T18:06:46.140Z,958.8483
2023-04-03T18:07:48.500Z,958.8539
2023-04-03T18:08:50.770Z,958.8644
2023-04-03T18:09:53.536Z,958.8672
2023-04-03T18:10:55.946Z,958.9045
2023-04-03T18:11:58.221Z,958.9100
2023-04-03T18:13:00.520Z,958.9178
2023-04-03T18:14:02.787Z,958.9305
2023-04-03T18:15:03.414Z,958.9570
2023-04-03T18:16:05.716Z,958.9411
2023-04-03T18:17:07.976Z,958.9633
2023-04-03T18:18:10.287Z,958.9700
2023-04-03T18:19:22.832Z,958.9816
2023-04-03T18:20:13.900Z,958.9950
2023-04-03T18:21:16.352Z,959.0184
2023-04-03T18:22:18.689Z,959.0178
2023-04-03T18:23:21.022Z,959.0211
2023-04-03T18:24:23.273Z,959.0256
2023-04-03T18:25:25.898Z,959.0256
2023-04-03T18:26:28.234Z,959.0339
2023-04-03T18:27:30.494Z,959.0184
2023-04-03T18:28:32.740Z,959.0195
2023-04-03T18:29:35.103Z,959.0067
2023-04-03T18:30:37.611Z,959.0016
2023-04-03T18:31:40.241Z,959.0289
2023-04-03T18:32:42.563Z,959.0411
2023-04-03T18:33:44.924Z,959.0378
2023-04-03T18:34:47.221Z,959.0467
2023-04-03T18:35:49.510Z,959.0522
2023-04-03T18:36:53.034Z,959.0628
2023-04-03T18:37:53.539Z,959.0700
2023-04-03T18:38:55.844Z,959.0706
2023-04-03T18:39:58.161Z,959.0917
2023-04-03T18:41:01.135Z,959.0994
2023-04-03T18:42:03.391Z,959.1055
2023-04-03T18:43:05.671Z,959.0883
2023-04-03T18:44:08.005Z,959.1006
2023-04-03T18:45:10.559Z,959.1172